Greenwood, Maine
Current Conditions -  °F | °C
As of 3:52 PM on Saturday 25 Oct 2014 (Local Time) from KBML Reporting Station
Clear Clear  
Wind Chill: 57°   Ceiling: Unl
Heat Index: 57°   Visibility: 10mi
Dew Point: 36°   Wind: 6mph
Humidity: 45%   Direction: 210°SSW
Pressure: 29.56"   Gusts: NA
Location:  44.4002°N, 70.7026°W
Report Text: KBML 251952Z AUTO 21005KT 10SM CLR 14/02 A2956 RMK AO2 SLP016 T01390022
Loading
Personal Weather Stations






























Interactive Weather Map
Tropical Storm Tracking
New forecast layout! Learn more

10-Day Weather Forecast

Advertisements
Track Severe Weather on mobile